sensor_id;sensor_type;location;lat;lon;timestamp;temperature;humidity
61374;DHT22;47242;48.158;-1.586;2022-12-18T05:31:31;-0.20;80.00
61374;DHT22;47242;48.158;-1.586;2022-12-18T05:33:57;-0.20;79.80
61374;DHT22;47242;48.158;-1.586;2022-12-18T05:36:23;-0.20;79.80
61374;DHT22;47242;48.158;-1.586;2022-12-18T05:38:49;-0.20;79.80
61374;DHT22;47242;48.158;-1.586;2022-12-18T05:41:15;-0.10;79.70
61374;DHT22;47242;48.158;-1.586;2022-12-18T05:43:41;-0.20;80.00
61374;DHT22;47242;48.158;-1.586;2022-12-18T05:46:24;-0.10;80.00
61374;DHT22;47242;48.158;-1.586;2022-12-18T05:48:50;-0.10;79.80
61374;DHT22;47242;48.158;-1.586;2022-12-18T05:51:19;-0.10;79.90
61374;DHT22;47242;48.158;-1.586;2022-12-18T05:53:45;-0.20;80.10
61374;DHT22;47242;48.158;-1.586;2022-12-18T05:56:17;-0.10;80.10
61374;DHT22;47242;48.158;-1.586;2022-12-18T05:58:43;-0.10;80.40
61374;DHT22;47242;48.158;-1.586;2022-12-18T06:01:12;0.00;80.20
61374;DHT22;47242;48.158;-1.586;2022-12-18T06:03:38;-0.10;80.20
61374;DHT22;47242;48.158;-1.586;2022-12-18T06:06:12;0.00;80.30
61374;DHT22;47242;48.158;-1.586;2022-12-18T06:08:37;0.00;80.30
61374;DHT22;47242;48.158;-1.586;2022-12-18T06:11:03;0.00;80.50
61374;DHT22;47242;48.158;-1.586;2022-12-18T06:13:29;0.00;80.80
61374;DHT22;47242;48.158;-1.586;2022-12-18T06:15:54;0.00;80.90
61374;DHT22;47242;48.158;-1.586;2022-12-18T06:18:20;0.00;80.90
61374;DHT22;47242;48.158;-1.586;2022-12-18T06:20:57;0.10;80.70
61374;DHT22;47242;48.158;-1.586;2022-12-18T06:23:24;0.10;80.80
61374;DHT22;47242;48.158;-1.586;2022-12-18T06:25:50;0.10;80.80
61374;DHT22;47242;48.158;-1.586;2022-12-18T06:28:15;0.20;80.90
61374;DHT22;47242;48.158;-1.586;2022-12-18T06:30:45;0.10;81.00
61374;DHT22;47242;48.158;-1.586;2022-12-18T06:33:11;0.20;81.00
61374;DHT22;47242;48.158;-1.586;2022-12-18T06:35:37;0.20;81.40
61374;DHT22;47242;48.158;-1.586;2022-12-18T06:38:02;0.10;81.50
61374;DHT22;47242;48.158;-1.586;2022-12-18T06:40:28;0.10;81.80
61374;DHT22;47242;48.158;-1.586;2022-12-18T06:42:54;0.20;81.80
61374;DHT22;47242;48.158;-1.586;2022-12-18T06:45:20;0.20;81.70
61374;DHT22;47242;48.158;-1.586;2022-12-18T06:47:45;0.20;81.90
61374;DHT22;47242;48.158;-1.586;2022-12-18T06:50:12;0.20;81.90
61374;DHT22;47242;48.158;-1.586;2022-12-18T06:52:38;0.30;82.00
61374;DHT22;47242;48.158;-1.586;2022-12-18T06:55:08;0.30;82.00
61374;DHT22;47242;48.158;-1.586;2022-12-18T06:57:35;0.40;82.00
61374;DHT22;47242;48.158;-1.586;2022-12-18T07:00:00;0.40;82.20
61374;DHT22;47242;48.158;-1.586;2022-12-18T07:02:26;0.50;82.20
61374;DHT22;47242;48.158;-1.586;2022-12-18T07:04:52;0.40;82.30
61374;DHT22;47242;48.158;-1.586;2022-12-18T07:07:17;0.50;82.70
61374;DHT22;47242;48.158;-1.586;2022-12-18T07:09:43;0.40;82.90
61374;DHT22;47242;48.158;-1.586;2022-12-18T07:12:09;0.40;82.90
61374;DHT22;47242;48.158;-1.586;2022-12-18T07:14:37;0.40;83.30
61374;DHT22;47242;48.158;-1.586;2022-12-18T07:17:02;0.40;83.40
61374;DHT22;47242;48.158;-1.586;2022-12-18T07:19:29;0.40;83.60
61374;DHT22;47242;48.158;-1.586;2022-12-18T07:21:54;0.60;83.40
61374;DHT22;47242;48.158;-1.586;2022-12-18T07:24:20;0.50;83.50
61374;DHT22;47242;48.158;-1.586;2022-12-18T07:26:46;0.50;83.70
61374;DHT22;47242;48.158;-1.586;2022-12-18T07:29:12;0.60;83.80
61374;DHT22;47242;48.158;-1.586;2022-12-18T07:31:38;0.70;83.70
61374;DHT22;47242;48.158;-1.586;2022-12-18T07:34:04;0.70;83.60
61374;DHT22;47242;48.158;-1.586;2022-12-18T07:36:29;0.70;83.40
61374;DHT22;47242;48.158;-1.586;2022-12-18T07:38:55;0.70;83.50
61374;DHT22;47242;48.158;-1.586;2022-12-18T07:41:21;0.70;83.90
61374;DHT22;47242;48.158;-1.586;2022-12-18T07:43:47;0.70;84.00
61374;DHT22;47242;48.158;-1.586;2022-12-18T07:46:17;0.70;83.90
61374;DHT22;47242;48.158;-1.586;2022-12-18T07:48:43;0.80;83.80
61374;DHT22;47242;48.158;-1.586;2022-12-18T07:51:09;0.80;83.90
61374;DHT22;47242;48.158;-1.586;2022-12-18T07:53:38;0.80;84.10
61374;DHT22;47242;48.158;-1.586;2022-12-18T07:56:09;0.70;84.50
61374;DHT22;47242;48.158;-1.586;2022-12-18T07:58:36;0.70;84.80
61374;DHT22;47242;48.158;-1.586;2022-12-18T08:01:09;0.80;84.90
61374;DHT22;47242;48.158;-1.586;2022-12-18T08:03:36;0.80;84.90
61374;DHT22;47242;48.158;-1.586;2022-12-18T08:06:06;0.80;84.90
61374;DHT22;47242;48.158;-1.586;2022-12-18T08:08:42;0.80;85.20
61374;DHT22;47242;48.158;-1.586;2022-12-18T08:11:07;0.80;85.50
61374;DHT22;47242;48.158;-1.586;2022-12-18T08:13:33;0.70;85.80
61374;DHT22;47242;48.158;-1.586;2022-12-18T08:16:03;0.80;85.70
61374;DHT22;47242;48.158;-1.586;2022-12-18T08:18:31;0.90;85.90
61374;DHT22;47242;48.158;-1.586;2022-12-18T08:23:40;0.90;85.90
61374;DHT22;47242;48.158;-1.586;2022-12-18T08:26:06;1.00;85.90
61374;DHT22;47242;48.158;-1.586;2022-12-18T08:28:32;1.00;85.90
61374;DHT22;47242;48.158;-1.586;2022-12-18T08:30:58;1.00;86.20
61374;DHT22;47242;48.158;-1.586;2022-12-18T08:33:24;1.00;86.20
61374;DHT22;47242;48.158;-1.586;2022-12-18T08:35:50;1.00;86.40
61374;DHT22;47242;48.158;-1.586;2022-12-18T08:38:16;1.00;86.70
61374;DHT22;47242;48.158;-1.586;2022-12-18T08:40:41;1.10;86.80
61374;DHT22;47242;48.158;-1.586;2022-12-18T08:43:09;1.10;86.90
61374;DHT22;47242;48.158;-1.586;2022-12-18T08:45:54;1.10;86.90
61374;DHT22;47242;48.158;-1.586;2022-12-18T08:48:20;1.10;87.00
61374;DHT22;47242;48.158;-1.586;2022-12-18T08:51:04;1.10;87.10
61374;DHT22;47242;48.158;-1.586;2022-12-18T08:53:29;1.10;87.30
61374;DHT22;47242;48.158;-1.586;2022-12-18T08:55:56;1.20;87.30
61374;DHT22;47242;48.158;-1.586;2022-12-18T08:58:22;1.20;87.20
61374;DHT22;47242;48.158;-1.586;2022-12-18T09:00:47;1.20;87.40
61374;DHT22;47242;48.158;-1.586;2022-12-18T09:03:14;1.20;87.40
61374;DHT22;47242;48.158;-1.586;2022-12-18T09:05:41;1.30;87.50
61374;DHT22;47242;48.158;-1.586;2022-12-18T09:08:06;1.30;87.60
61374;DHT22;47242;48.158;-1.586;2022-12-18T09:10:32;1.40;87.60
61374;DHT22;47242;48.158;-1.586;2022-12-18T09:12:58;1.40;87.50
61374;DHT22;47242;48.158;-1.586;2022-12-18T09:15:23;1.50;87.40
61374;DHT22;47242;48.158;-1.586;2022-12-18T09:17:49;1.50;87.50
61374;DHT22;47242;48.158;-1.586;2022-12-18T09:20:16;1.50;87.40
61374;DHT22;47242;48.158;-1.586;2022-12-18T09:22:42;1.60;87.30
61374;DHT22;47242;48.158;-1.586;2022-12-18T09:25:07;1.50;87.30
61374;DHT22;47242;48.158;-1.586;2022-12-18T09:27:34;1.60;87.50
61374;DHT22;47242;48.158;-1.586;2022-12-18T09:30:00;1.60;87.50
61374;DHT22;47242;48.158;-1.586;2022-12-18T09:32:25;1.60;87.50
61374;DHT22;47242;48.158;-1.586;2022-12-18T09:34:51;1.70;87.40
61374;DHT22;47242;48.158;-1.586;2022-12-18T09:37:17;1.70;87.30
61374;DHT22;47242;48.158;-1.586;2022-12-18T09:39:43;1.70;87.10
61374;DHT22;47242;48.158;-1.586;2022-12-18T09:42:16;1.70;87.30
61374;DHT22;47242;48.158;-1.586;2022-12-18T09:44:51;1.70;87.30
61374;DHT22;47242;48.158;-1.586;2022-12-18T09:49:56;1.70;87.30
61374;DHT22;47242;48.158;-1.586;2022-12-18T09:52:45;1.70;87.30
61374;DHT22;47242;48.158;-1.586;2022-12-18T09:57:55;1.70;87.50
61374;DHT22;47242;48.158;-1.586;2022-12-18T10:00:24;1.70;87.50
61374;DHT22;47242;48.158;-1.586;2022-12-18T10:02:51;1.80;87.70
61374;DHT22;47242;48.158;-1.586;2022-12-18T10:05:35;1.80;87.60
61374;DHT22;47242;48.158;-1.586;2022-12-18T10:08:29;1.80;87.50
61374;DHT22;47242;48.158;-1.586;2022-12-18T10:11:21;1.80;87.50
61374;DHT22;47242;48.158;-1.586;2022-12-18T10:14:00;1.80;87.60
61374;DHT22;47242;48.158;-1.586;2022-12-18T10:16:56;1.90;87.80
61374;DHT22;47242;48.158;-1.586;2022-12-18T10:19:51;1.90;87.50
61374;DHT22;47242;48.158;-1.586;2022-12-18T10:25:38;1.80;88.00
61374;DHT22;47242;48.158;-1.586;2022-12-18T10:28:16;1.80;88.00
61374;DHT22;47242;48.158;-1.586;2022-12-18T10:30:43;1.80;88.00
61374;DHT22;47242;48.158;-1.586;2022-12-18T10:33:22;1.80;88.20
61374;DHT22;47242;48.158;-1.586;2022-12-18T10:35:51;1.90;88.40
61374;DHT22;47242;48.158;-1.586;2022-12-18T10:41:00;1.90;88.50
61374;DHT22;47242;48.158;-1.586;2022-12-18T10:43:27;1.90;88.40
61374;DHT22;47242;48.158;-1.586;2022-12-18T10:51:06;1.90;88.90
61374;DHT22;47242;48.158;-1.586;2022-12-18T10:53:34;2.00;89.00
61374;DHT22;47242;48.158;-1.586;2022-12-18T10:56:00;2.00;88.90
61374;DHT22;47242;48.158;-1.586;2022-12-18T10:58:30;1.90;89.00
61374;DHT22;47242;48.158;-1.586;2022-12-18T11:01:18;1.90;89.40
61374;DHT22;47242;48.158;-1.586;2022-12-18T11:04:01;2.00;89.40
61374;DHT22;47242;48.158;-1.586;2022-12-18T11:06:27;2.00;89.60
61374;DHT22;47242;48.158;-1.586;2022-12-18T11:09:00;2.00;89.70
61374;DHT22;47242;48.158;-1.586;2022-12-18T11:11:27;2.00;89.50
61374;DHT22;47242;48.158;-1.586;2022-12-18T11:14:05;2.20;89.80
61374;DHT22;47242;48.158;-1.586;2022-12-18T11:16:42;2.20;89.70
61374;DHT22;47242;48.158;-1.586;2022-12-18T11:19:38;2.10;89.60
61374;DHT22;47242;48.158;-1.586;2022-12-18T11:22:26;2.10;90.20
61374;DHT22;47242;48.158;-1.586;2022-12-18T11:27:38;2.20;90.60
61374;DHT22;47242;48.158;-1.586;2022-12-18T11:33:09;2.30;90.40
61374;DHT22;47242;48.158;-1.586;2022-12-18T11:38:18;2.40;90.30
61374;DHT22;47242;48.158;-1.586;2022-12-18T11:40:50;2.50;90.40
61374;DHT22;47242;48.158;-1.586;2022-12-18T11:43:25;2.50;90.30
61374;DHT22;47242;48.158;-1.586;2022-12-18T11:45:56;2.50;90.30
61374;DHT22;47242;48.158;-1.586;2022-12-18T11:48:32;2.50;90.00
61374;DHT22;47242;48.158;-1.586;2022-12-18T11:51:01;2.50;90.10
61374;DHT22;47242;48.158;-1.586;2022-12-18T11:53:30;2.60;90.20
61374;DHT22;47242;48.158;-1.586;2022-12-18T11:58:47;2.60;89.80
61374;DHT22;47242;48.158;-1.586;2022-12-18T12:07:24;2.60;90.30
61374;DHT22;47242;48.158;-1.586;2022-12-18T12:10:00;2.60;90.50
61374;DHT22;47242;48.158;-1.586;2022-12-18T12:23:58;2.70;90.70
61374;DHT22;47242;48.158;-1.586;2022-12-18T12:26:36;2.80;90.80
61374;DHT22;47242;48.158;-1.586;2022-12-18T12:31:44;2.80;90.60
61374;DHT22;47242;48.158;-1.586;2022-12-18T12:34:21;2.90;90.80
61374;DHT22;47242;48.158;-1.586;2022-12-18T12:37:01;3.00;90.70
61374;DHT22;47242;48.158;-1.586;2022-12-18T12:39:35;3.00;90.20
61374;DHT22;47242;48.158;-1.586;2022-12-18T12:42:04;3.00;90.30
61374;DHT22;47242;48.158;-1.586;2022-12-18T12:44:56;3.00;89.90
61374;DHT22;47242;48.158;-1.586;2022-12-18T12:47:38;3.00;90.20
61374;DHT22;47242;48.158;-1.586;2022-12-18T12:50:13;3.00;90.00
61374;DHT22;47242;48.158;-1.586;2022-12-18T12:52:45;3.10;90.20
61374;DHT22;47242;48.158;-1.586;2022-12-18T12:55:21;3.00;90.10
61374;DHT22;47242;48.158;-1.586;2022-12-18T13:00:22;3.10;90.00
61374;DHT22;47242;48.158;-1.586;2022-12-18T13:08:31;3.20;90.10
61374;DHT22;47242;48.158;-1.586;2022-12-18T13:10:58;3.20;90.20
61374;DHT22;47242;48.158;-1.586;2022-12-18T13:13:52;3.30;90.20
61374;DHT22;47242;48.158;-1.586;2022-12-18T13:16:20;3.30;90.00
61374;DHT22;47242;48.158;-1.586;2022-12-18T13:18:53;3.40;90.00
61374;DHT22;47242;48.158;-1.586;2022-12-18T13:21:29;3.40;89.90
61374;DHT22;47242;48.158;-1.586;2022-12-18T13:23:56;3.40;89.70
61374;DHT22;47242;48.158;-1.586;2022-12-18T13:28:52;3.50;89.60
61374;DHT22;47242;48.158;-1.586;2022-12-18T13:34:26;3.60;89.50
61374;DHT22;47242;48.158;-1.586;2022-12-18T13:36:53;3.70;89.60
61374;DHT22;47242;48.158;-1.586;2022-12-18T13:44:41;3.70;89.30
61374;DHT22;47242;48.158;-1.586;2022-12-18T13:47:32;3.70;89.40
61374;DHT22;47242;48.158;-1.586;2022-12-18T13:49:59;3.70;89.30
61374;DHT22;47242;48.158;-1.586;2022-12-18T13:52:28;3.70;89.30
61374;DHT22;47242;48.158;-1.586;2022-12-18T13:54:59;3.80;89.30
61374;DHT22;47242;48.158;-1.586;2022-12-18T13:57:35;3.70;89.30
61374;DHT22;47242;48.158;-1.586;2022-12-18T14:00:25;3.80;89.30
61374;DHT22;47242;48.158;-1.586;2022-12-18T14:02:51;3.80;89.60
61374;DHT22;47242;48.158;-1.586;2022-12-18T14:05:31;3.80;89.50
61374;DHT22;47242;48.158;-1.586;2022-12-18T14:08:08;3.90;89.40
61374;DHT22;47242;48.158;-1.586;2022-12-18T14:10:35;3.90;89.50
61374;DHT22;47242;48.158;-1.586;2022-12-18T14:13:08;3.90;89.50
61374;DHT22;47242;48.158;-1.586;2022-12-18T14:15:40;4.00;89.80
61374;DHT22;47242;48.158;-1.586;2022-12-18T14:20:35;4.00;89.70
61374;DHT22;47242;48.158;-1.586;2022-12-18T14:23:01;4.00;90.00
61374;DHT22;47242;48.158;-1.586;2022-12-18T14:25:28;4.00;90.00
61374;DHT22;47242;48.158;-1.586;2022-12-18T14:30:40;4.00;90.50
61374;DHT22;47242;48.158;-1.586;2022-12-18T14:33:09;4.20;90.50
61374;DHT22;47242;48.158;-1.586;2022-12-18T14:35:51;4.20;90.30
61374;DHT22;47242;48.158;-1.586;2022-12-18T14:40:59;4.30;90.40
61374;DHT22;47242;48.158;-1.586;2022-12-18T14:43:27;4.40;90.20
61374;DHT22;47242;48.158;-1.586;2022-12-18T14:45:53;4.50;90.30
61374;DHT22;47242;48.158;-1.586;2022-12-18T14:50:56;4.50;90.40
61374;DHT22;47242;48.158;-1.586;2022-12-18T14:53:39;4.50;90.00
61374;DHT22;47242;48.158;-1.586;2022-12-18T14:58:55;4.60;90.40
61374;DHT22;47242;48.158;-1.586;2022-12-18T15:01:30;4.60;90.30
61374;DHT22;47242;48.158;-1.586;2022-12-18T15:03:59;4.60;90.60
61374;DHT22;47242;48.158;-1.586;2022-12-18T15:06:43;4.70;90.50
61374;DHT22;47242;48.158;-1.586;2022-12-18T15:09:25;4.70;90.40
61374;DHT22;47242;48.158;-1.586;2022-12-18T15:11:56;4.70;90.40
61374;DHT22;47242;48.158;-1.586;2022-12-18T15:14:41;4.70;90.20
61374;DHT22;47242;48.158;-1.586;2022-12-18T15:17:19;4.70;90.40
61374;DHT22;47242;48.158;-1.586;2022-12-18T15:19:47;4.80;90.30
61374;DHT22;47242;48.158;-1.586;2022-12-18T15:22:32;4.70;90.40
61374;DHT22;47242;48.158;-1.586;2022-12-18T15:24:59;4.80;90.60
61374;DHT22;47242;48.158;-1.586;2022-12-18T15:27:33;4.80;90.60
61374;DHT22;47242;48.158;-1.586;2022-12-18T15:32:36;4.90;90.80
61374;DHT22;47242;48.158;-1.586;2022-12-18T15:35:23;4.90;90.70
61374;DHT22;47242;48.158;-1.586;2022-12-18T15:37:50;5.00;90.70
61374;DHT22;47242;48.158;-1.586;2022-12-18T15:40:21;5.00;90.60
61374;DHT22;47242;48.158;-1.586;2022-12-18T15:42:48;5.20;90.80
61374;DHT22;47242;48.158;-1.586;2022-12-18T15:45:33;5.20;90.60
61374;DHT22;47242;48.158;-1.586;2022-12-18T15:47:59;5.30;90.60
61374;DHT22;47242;48.158;-1.586;2022-12-18T15:50:25;5.30;90.80
61374;DHT22;47242;48.158;-1.586;2022-12-18T15:52:52;5.40;90.80
61374;DHT22;47242;48.158;-1.586;2022-12-18T15:55:23;5.50;90.70
61374;DHT22;47242;48.158;-1.586;2022-12-18T15:58:09;5.50;90.70
61374;DHT22;47242;48.158;-1.586;2022-12-18T16:00:38;5.50;90.50
61374;DHT22;47242;48.158;-1.586;2022-12-18T16:03:05;5.60;90.70
61374;DHT22;47242;48.158;-1.586;2022-12-18T16:05:31;5.60;90.60
61374;DHT22;47242;48.158;-1.586;2022-12-18T16:07:57;5.60;90.50
61374;DHT22;47242;48.158;-1.586;2022-12-18T16:10:24;5.70;90.60
61374;DHT22;47242;48.158;-1.586;2022-12-18T16:12:51;5.70;90.60
61374;DHT22;47242;48.158;-1.586;2022-12-18T16:15:17;5.70;90.50
61374;DHT22;47242;48.158;-1.586;2022-12-18T16:17:43;5.80;90.60
61374;DHT22;47242;48.158;-1.586;2022-12-18T16:20:16;5.80;90.60
61374;DHT22;47242;48.158;-1.586;2022-12-18T16:22:45;5.90;90.60
61374;DHT22;47242;48.158;-1.586;2022-12-18T16:25:24;6.00;90.50
61374;DHT22;47242;48.158;-1.586;2022-12-18T16:27:51;6.00;90.50
61374;DHT22;47242;48.158;-1.586;2022-12-18T16:30:25;6.10;90.60
61374;DHT22;47242;48.158;-1.586;2022-12-18T16:32:56;6.20;90.70
61374;DHT22;47242;48.158;-1.586;2022-12-18T16:35:22;6.20;90.60
61374;DHT22;47242;48.158;-1.586;2022-12-18T16:37:49;6.30;90.50
61374;DHT22;47242;48.158;-1.586;2022-12-18T16:40:16;6.30;90.40
61374;DHT22;47242;48.158;-1.586;2022-12-18T16:42:43;6.20;90.70
61374;DHT22;47242;48.158;-1.586;2022-12-18T16:45:12;6.30;90.60
61374;DHT22;47242;48.158;-1.586;2022-12-18T16:47:39;6.30;90.40
61374;DHT22;47242;48.158;-1.586;2022-12-18T16:50:05;6.40;90.30
61374;DHT22;47242;48.158;-1.586;2022-12-18T16:52:31;6.40;90.60
61374;DHT22;47242;48.158;-1.586;2022-12-18T16:54:57;6.40;90.70
61374;DHT22;47242;48.158;-1.586;2022-12-18T16:57:23;6.40;90.40
61374;DHT22;47242;48.158;-1.586;2022-12-18T16:59:49;6.50;90.50
61374;DHT22;47242;48.158;-1.586;2022-12-18T17:02:17;6.50;90.50
61374;DHT22;47242;48.158;-1.586;2022-12-18T17:04:44;6.60;90.50
61374;DHT22;47242;48.158;-1.586;2022-12-18T17:07:10;6.60;90.40
61374;DHT22;47242;48.158;-1.586;2022-12-18T17:09:36;6.60;90.40
61374;DHT22;47242;48.158;-1.586;2022-12-18T17:12:02;6.70;90.40
61374;DHT22;47242;48.158;-1.586;2022-12-18T17:14:28;6.70;90.30
61374;DHT22;47242;48.158;-1.586;2022-12-18T17:16:54;6.70;90.30
61374;DHT22;47242;48.158;-1.586;2022-12-18T17:19:22;6.70;90.20
61374;DHT22;47242;48.158;-1.586;2022-12-18T17:21:49;6.80;90.20
61374;DHT22;47242;48.158;-1.586;2022-12-18T17:24:18;6.80;90.30
61374;DHT22;47242;48.158;-1.586;2022-12-18T17:26:44;6.80;90.20
61374;DHT22;47242;48.158;-1.586;2022-12-18T17:29:16;6.80;90.20
61374;DHT22;47242;48.158;-1.586;2022-12-18T17:31:42;6.80;90.40
61374;DHT22;47242;48.158;-1.586;2022-12-18T17:34:09;6.80;90.30
61374;DHT22;47242;48.158;-1.586;2022-12-18T17:36:35;6.80;90.20
61374;DHT22;47242;48.158;-1.586;2022-12-18T17:39:03;6.80;90.40
61374;DHT22;47242;48.158;-1.586;2022-12-18T17:41:29;6.90;90.30
61374;DHT22;47242;48.158;-1.586;2022-12-18T17:44:00;6.90;90.30
61374;DHT22;47242;48.158;-1.586;2022-12-18T17:46:27;6.90;90.20
61374;DHT22;47242;48.158;-1.586;2022-12-18T17:48:57;6.90;90.30
61374;DHT22;47242;48.158;-1.586;2022-12-18T17:51:23;7.00;90.20
61374;DHT22;47242;48.158;-1.586;2022-12-18T17:53:49;7.00;90.30
61374;DHT22;47242;48.158;-1.586;2022-12-18T17:56:18;7.00;90.20
61374;DHT22;47242;48.158;-1.586;2022-12-18T17:58:44;7.00;90.30
61374;DHT22;47242;48.158;-1.586;2022-12-18T18:01:13;7.00;90.20
61374;DHT22;47242;48.158;-1.586;2022-12-18T18:03:59;7.10;90.20
61374;DHT22;47242;48.158;-1.586;2022-12-18T18:06:26;7.10;90.00
61374;DHT22;47242;48.158;-1.586;2022-12-18T18:08:52;7.20;90.00
61374;DHT22;47242;48.158;-1.586;2022-12-18T18:11:20;7.20;90.00
61374;DHT22;47242;48.158;-1.586;2022-12-18T18:14:10;7.20;90.00
61374;DHT22;47242;48.158;-1.586;2022-12-18T18:16:40;7.30;89.90
61374;DHT22;47242;48.158;-1.586;2022-12-18T18:19:09;7.30;89.90
61374;DHT22;47242;48.158;-1.586;2022-12-18T18:21:38;7.40;90.00
61374;DHT22;47242;48.158;-1.586;2022-12-18T18:24:05;7.40;89.90
61374;DHT22;47242;48.158;-1.586;2022-12-18T18:26:32;7.50;89.70
61374;DHT22;47242;48.158;-1.586;2022-12-18T18:29:02;7.50;89.90
61374;DHT22;47242;48.158;-1.586;2022-12-18T18:31:29;7.60;89.80
61374;DHT22;47242;48.158;-1.586;2022-12-18T18:33:55;7.60;89.60
61374;DHT22;47242;48.158;-1.586;2022-12-18T18:36:23;7.70;89.70
61374;DHT22;47242;48.158;-1.586;2022-12-18T18:38:49;7.70;89.50
61374;DHT22;47242;48.158;-1.586;2022-12-18T18:41:15;7.70;89.40
61374;DHT22;47242;48.158;-1.586;2022-12-18T18:43:41;7.70;89.60
61374;DHT22;47242;48.158;-1.586;2022-12-18T18:46:08;7.80;89.50
61374;DHT22;47242;48.158;-1.586;2022-12-18T18:48:35;7.80;89.20
61374;DHT22;47242;48.158;-1.586;2022-12-18T18:51:08;7.80;89.20
61374;DHT22;47242;48.158;-1.586;2022-12-18T18:53:36;7.80;89.30
61374;DHT22;47242;48.158;-1.586;2022-12-18T18:56:02;7.90;89.20
61374;DHT22;47242;48.158;-1.586;2022-12-18T18:58:28;7.80;89.30
61374;DHT22;47242;48.158;-1.586;2022-12-18T19:01:05;7.90;89.00
61374;DHT22;47242;48.158;-1.586;2022-12-18T19:03:35;8.00;89.20
61374;DHT22;47242;48.158;-1.586;2022-12-18T19:06:02;8.00;89.00
61374;DHT22;47242;48.158;-1.586;2022-12-18T19:08:32;8.20;89.10
61374;DHT22;47242;48.158;-1.586;2022-12-18T19:10:59;8.20;89.20
61374;DHT22;47242;48.158;-1.586;2022-12-18T19:13:29;8.20;89.10
61374;DHT22;47242;48.158;-1.586;2022-12-18T19:16:06;8.20;89.10
61374;DHT22;47242;48.158;-1.586;2022-12-18T19:18:32;8.30;89.30
61374;DHT22;47242;48.158;-1.586;2022-12-18T19:21:00;8.40;89.30
61374;DHT22;47242;48.158;-1.586;2022-12-18T19:23:37;8.40;89.40
61374;DHT22;47242;48.158;-1.586;2022-12-18T19:26:06;8.50;89.80
61374;DHT22;47242;48.158;-1.586;2022-12-18T19:28:33;8.50;89.90
61374;DHT22;47242;48.158;-1.586;2022-12-18T19:31:01;8.50;89.60
61374;DHT22;47242;48.158;-1.586;2022-12-18T19:33:28;8.60;89.40
61374;DHT22;47242;48.158;-1.586;2022-12-18T19:35:54;8.50;89.50
61374;DHT22;47242;48.158;-1.586;2022-12-18T19:38:20;8.60;89.60
61374;DHT22;47242;48.158;-1.586;2022-12-18T19:40:49;8.60;89.50
61374;DHT22;47242;48.158;-1.586;2022-12-18T19:43:14;8.60;89.80
61374;DHT22;47242;48.158;-1.586;2022-12-18T19:45:40;8.70;89.70
61374;DHT22;47242;48.158;-1.586;2022-12-18T19:48:07;8.70;89.50
61374;DHT22;47242;48.158;-1.586;2022-12-18T19:50:33;8.70;89.60
61374;DHT22;47242;48.158;-1.586;2022-12-18T19:52:59;8.80;89.50
61374;DHT22;47242;48.158;-1.586;2022-12-18T19:55:25;8.80;89.40
61374;DHT22;47242;48.158;-1.586;2022-12-18T19:57:51;8.80;89.20
61374;DHT22;47242;48.158;-1.586;2022-12-18T20:00:17;8.80;89.20
61374;DHT22;47242;48.158;-1.586;2022-12-18T20:02:42;8.90;89.10
61374;DHT22;47242;48.158;-1.586;2022-12-18T20:05:11;8.90;89.00
61374;DHT22;47242;48.158;-1.586;2022-12-18T20:07:37;8.90;88.90
61374;DHT22;47242;48.158;-1.586;2022-12-18T20:10:05;9.00;88.70
61374;DHT22;47242;48.158;-1.586;2022-12-18T20:12:31;9.00;88.90
61374;DHT22;47242;48.158;-1.586;2022-12-18T20:14:59;9.00;88.70
61374;DHT22;47242;48.158;-1.586;2022-12-18T20:17:27;9.10;88.90
61374;DHT22;47242;48.158;-1.586;2022-12-18T20:19:53;9.10;88.80
61374;DHT22;47242;48.158;-1.586;2022-12-18T20:22:18;9.10;88.70
61374;DHT22;47242;48.158;-1.586;2022-12-18T20:24:44;9.10;88.90
61374;DHT22;47242;48.158;-1.586;2022-12-18T20:27:10;9.20;89.00
61374;DHT22;47242;48.158;-1.586;2022-12-18T20:29:35;9.20;89.00
61374;DHT22;47242;48.158;-1.586;2022-12-18T20:32:01;9.20;89.20
61374;DHT22;47242;48.158;-1.586;2022-12-18T20:34:32;9.20;89.10
61374;DHT22;47242;48.158;-1.586;2022-12-18T20:36:58;9.20;89.40
61374;DHT22;47242;48.158;-1.586;2022-12-18T20:39:24;9.20;89.30
61374;DHT22;47242;48.158;-1.586;2022-12-18T20:41:51;9.20;89.40
61374;DHT22;47242;48.158;-1.586;2022-12-18T20:44:17;9.20;89.40
61374;DHT22;47242;48.158;-1.586;2022-12-18T20:46:43;9.30;89.60
61374;DHT22;47242;48.158;-1.586;2022-12-18T20:49:08;9.30;89.40
61374;DHT22;47242;48.158;-1.586;2022-12-18T20:51:36;9.30;89.60
61374;DHT22;47242;48.158;-1.586;2022-12-18T20:54:02;9.30;89.40
61374;DHT22;47242;48.158;-1.586;2022-12-18T20:56:28;9.30;89.40
61374;DHT22;47242;48.158;-1.586;2022-12-18T20:58:58;9.30;89.40
61374;DHT22;47242;48.158;-1.586;2022-12-18T21:01:26;9.30;89.30
61374;DHT22;47242;48.158;-1.586;2022-12-18T21:03:57;9.40;89.20
61374;DHT22;47242;48.158;-1.586;2022-12-18T21:06:27;9.50;89.20
61374;DHT22;47242;48.158;-1.586;2022-12-18T21:08:53;9.40;88.90
61374;DHT22;47242;48.158;-1.586;2022-12-18T21:14:05;9.50;88.70
61374;DHT22;47242;48.158;-1.586;2022-12-18T21:16:33;9.50;88.60
61374;DHT22;47242;48.158;-1.586;2022-12-18T21:18:59;9.50;88.50
61374;DHT22;47242;48.158;-1.586;2022-12-18T21:21:25;9.60;88.30
61374;DHT22;47242;48.158;-1.586;2022-12-18T21:24:01;9.60;88.20
61374;DHT22;47242;48.158;-1.586;2022-12-18T21:26:27;9.70;88.10
61374;DHT22;47242;48.158;-1.586;2022-12-18T21:28:54;9.70;87.90
61374;DHT22;47242;48.158;-1.586;2022-12-18T21:31:25;9.70;87.70
61374;DHT22;47242;48.158;-1.586;2022-12-18T21:33:51;9.60;87.60
61374;DHT22;47242;48.158;-1.586;2022-12-18T21:36:17;9.60;87.50
61374;DHT22;47242;48.158;-1.586;2022-12-18T21:38:43;9.60;87.40
61374;DHT22;47242;48.158;-1.586;2022-12-18T21:41:10;9.70;87.40
61374;DHT22;47242;48.158;-1.586;2022-12-18T21:43:59;9.60;87.20
61374;DHT22;47242;48.158;-1.586;2022-12-18T21:46:35;9.70;87.10
61374;DHT22;47242;48.158;-1.586;2022-12-18T21:49:01;9.70;87.10
61374;DHT22;47242;48.158;-1.586;2022-12-18T21:51:37;9.70;86.90
61374;DHT22;47242;48.158;-1.586;2022-12-18T21:54:03;9.70;86.80
61374;DHT22;47242;48.158;-1.586;2022-12-18T21:56:52;9.70;86.70
61374;DHT22;47242;48.158;-1.586;2022-12-18T21:59:23;9.70;86.60
61374;DHT22;47242;48.158;-1.586;2022-12-18T22:01:49;9.70;86.40
61374;DHT22;47242;48.158;-1.586;2022-12-18T22:04:16;9.80;86.40
61374;DHT22;47242;48.158;-1.586;2022-12-18T22:06:43;9.80;86.40
61374;DHT22;47242;48.158;-1.586;2022-12-18T22:09:12;9.80;86.30
61374;DHT22;47242;48.158;-1.586;2022-12-18T22:11:39;9.90;86.20
61374;DHT22;47242;48.158;-1.586;2022-12-18T22:14:13;9.80;86.10
61374;DHT22;47242;48.158;-1.586;2022-12-18T22:16:47;9.80;85.80
61374;DHT22;47242;48.158;-1.586;2022-12-18T22:19:13;9.90;86.10
61374;DHT22;47242;48.158;-1.586;2022-12-18T22:21:41;9.90;85.60
61374;DHT22;47242;48.158;-1.586;2022-12-18T22:24:11;9.80;85.60
61374;DHT22;47242;48.158;-1.586;2022-12-18T22:26:37;9.80;85.60
61374;DHT22;47242;48.158;-1.586;2022-12-18T22:29:04;9.80;85.40
